Terminal Aerodrome Forecast
Issued by NWS

Home | Current Version | Previous Version | Text Only | Print | Product List | Glossary On
Versions: 1 2 3 4 5 6 7 8 9 10 11 12
000
FTUS45 KABQ 231100
TAFROW
TAF
KROW 231128Z 2312/2412 32006KT P6SM FEW250
     FM231400 29014G23KT P6SM SCT250
     FM231700 32027G37KT P6SM FEW120
     FM240000 32015KT P6SM SKC
     FM240600 32009KT P6SM SKC=

USA.gov is the U.S. government's official web portal to all federal, state and local government web resources and services.